sensor_id;sensor_type;location;lat;lon;timestamp;temperature;humidity
19580;DHT22;9936;51.040;13.918;2023-02-11T00:02:27;1.30;99.90
19580;DHT22;9936;51.040;13.918;2023-02-11T00:06:13;1.30;99.90
19580;DHT22;9936;51.040;13.918;2023-02-11T00:09:59;1.20;99.90
19580;DHT22;9936;51.040;13.918;2023-02-11T00:13:47;1.20;99.90
19580;DHT22;9936;51.040;13.918;2023-02-11T00:17:33;1.20;99.90
19580;DHT22;9936;51.040;13.918;2023-02-11T05:04:03;2.90;99.90
19580;DHT22;9936;51.040;13.918;2023-02-11T05:07:49;2.90;99.90
19580;DHT22;9936;51.040;13.918;2023-02-11T05:11:34;2.90;99.90
19580;DHT22;9936;51.040;13.918;2023-02-11T05:15:21;2.80;99.90
19580;DHT22;9936;51.040;13.918;2023-02-11T05:19:06;2.90;99.90
19580;DHT22;9936;51.040;13.918;2023-02-11T05:22:52;2.80;99.90
19580;DHT22;9936;51.040;13.918;2023-02-11T08:23:57;2.80;99.90
19580;DHT22;9936;51.040;13.918;2023-02-11T08:27:43;2.90;99.90
19580;DHT22;9936;51.040;13.918;2023-02-11T08:31:33;2.80;99.90
19580;DHT22;9936;51.040;13.918;2023-02-11T08:35:19;2.80;99.90
19580;DHT22;9936;51.040;13.918;2023-02-11T08:43:10;2.90;99.90
19580;DHT22;9936;51.040;13.918;2023-02-11T08:46:57;2.90;99.90
19580;DHT22;9936;51.040;13.918;2023-02-11T08:50:42;2.90;99.90
19580;DHT22;9936;51.040;13.918;2023-02-11T08:54:29;2.90;99.90
19580;DHT22;9936;51.040;13.918;2023-02-11T08:58:15;2.90;99.90
19580;DHT22;9936;51.040;13.918;2023-02-11T09:02:01;3.00;99.90
19580;DHT22;9936;51.040;13.918;2023-02-11T09:05:48;3.00;99.90
19580;DHT22;9936;51.040;13.918;2023-02-11T09:09:37;3.10;99.90
19580;DHT22;9936;51.040;13.918;2023-02-11T09:18:05;3.10;99.90
19580;DHT22;9936;51.040;13.918;2023-02-11T09:21:50;3.10;99.90
19580;DHT22;9936;51.040;13.918;2023-02-11T09:25:39;3.20;99.90
19580;DHT22;9936;51.040;13.918;2023-02-11T09:29:25;3.20;99.90
19580;DHT22;9936;51.040;13.918;2023-02-11T09:33:11;3.30;99.90
19580;DHT22;9936;51.040;13.918;2023-02-11T09:36:57;3.40;99.90
19580;DHT22;9936;51.040;13.918;2023-02-11T09:40:44;3.30;99.90
19580;DHT22;9936;51.040;13.918;2023-02-11T09:44:34;3.40;99.90
19580;DHT22;9936;51.040;13.918;2023-02-11T09:48:21;3.40;99.90
19580;DHT22;9936;51.040;13.918;2023-02-11T09:56:20;3.40;99.90
19580;DHT22;9936;51.040;13.918;2023-02-11T10:00:36;3.40;99.90
19580;DHT22;9936;51.040;13.918;2023-02-11T10:21:55;3.50;99.90
19580;DHT22;9936;51.040;13.918;2023-02-11T10:25:46;3.60;99.90
19580;DHT22;9936;51.040;13.918;2023-02-11T10:29:40;3.60;99.90
19580;DHT22;9936;51.040;13.918;2023-02-11T10:37:16;3.80;99.90
19580;DHT22;9936;51.040;13.918;2023-02-11T10:41:03;3.70;99.90
19580;DHT22;9936;51.040;13.918;2023-02-11T10:45:03;3.70;99.90
19580;DHT22;9936;51.040;13.918;2023-02-11T10:48:52;3.80;99.90
19580;DHT22;9936;51.040;13.918;2023-02-11T10:52:38;3.80;99.90
19580;DHT22;9936;51.040;13.918;2023-02-11T10:56:26;4.00;99.90
19580;DHT22;9936;51.040;13.918;2023-02-11T11:00:34;3.90;99.90
19580;DHT22;9936;51.040;13.918;2023-02-11T11:12:28;4.10;99.90
19580;DHT22;9936;51.040;13.918;2023-02-11T11:16:17;4.10;99.90
19580;DHT22;9936;51.040;13.918;2023-02-11T11:24:05;4.10;99.90
19580;DHT22;9936;51.040;13.918;2023-02-11T11:28:00;4.20;99.90
19580;DHT22;9936;51.040;13.918;2023-02-11T11:32:05;4.20;99.90
19580;DHT22;9936;51.040;13.918;2023-02-11T11:36:02;4.20;99.90
19580;DHT22;9936;51.040;13.918;2023-02-11T11:44:34;4.20;99.90
19580;DHT22;9936;51.040;13.918;2023-02-11T11:52:19;4.20;99.90
19580;DHT22;9936;51.040;13.918;2023-02-11T11:56:37;4.30;99.90
19580;DHT22;9936;51.040;13.918;2023-02-11T12:16:40;4.40;99.90
19580;DHT22;9936;51.040;13.918;2023-02-11T12:24:46;4.30;99.90
19580;DHT22;9936;51.040;13.918;2023-02-11T12:36:53;4.30;99.90
19580;DHT22;9936;51.040;13.918;2023-02-11T12:53:30;4.30;99.90
19580;DHT22;9936;51.040;13.918;2023-02-11T12:57:20;4.30;99.90
19580;DHT22;9936;51.040;13.918;2023-02-11T13:01:16;4.30;99.90
19580;DHT22;9936;51.040;13.918;2023-02-11T13:05:26;4.30;99.90
19580;DHT22;9936;51.040;13.918;2023-02-11T13:09:41;4.30;99.90
19580;DHT22;9936;51.040;13.918;2023-02-11T13:13:45;4.30;99.90
19580;DHT22;9936;51.040;13.918;2023-02-11T13:22:16;4.30;99.90
19580;DHT22;9936;51.040;13.918;2023-02-11T13:30:27;4.30;99.90
19580;DHT22;9936;51.040;13.918;2023-02-11T13:34:25;4.30;99.90
19580;DHT22;9936;51.040;13.918;2023-02-11T13:38:20;4.20;99.90
19580;DHT22;9936;51.040;13.918;2023-02-11T13:42:14;4.30;99.90
19580;DHT22;9936;51.040;13.918;2023-02-11T13:46:11;4.30;99.90
19580;DHT22;9936;51.040;13.918;2023-02-11T13:49:59;4.30;99.90
19580;DHT22;9936;51.040;13.918;2023-02-11T13:53:54;4.40;99.90
19580;DHT22;9936;51.040;13.918;2023-02-11T13:57:41;4.40;99.90
19580;DHT22;9936;51.040;13.918;2023-02-11T14:14:31;4.50;99.90
19580;DHT22;9936;51.040;13.918;2023-02-11T14:18:37;4.50;99.90
19580;DHT22;9936;51.040;13.918;2023-02-11T14:22:48;4.50;99.90
19580;DHT22;9936;51.040;13.918;2023-02-11T14:26:52;4.50;99.90
19580;DHT22;9936;51.040;13.918;2023-02-11T14:42:44;4.50;99.90
19580;DHT22;9936;51.040;13.918;2023-02-11T14:58:54;4.50;99.90
19580;DHT22;9936;51.040;13.918;2023-02-11T15:02:42;4.50;99.90
19580;DHT22;9936;51.040;13.918;2023-02-11T15:06:35;4.50;99.90
19580;DHT22;9936;51.040;13.918;2023-02-11T15:10:34;4.50;99.90
19580;DHT22;9936;51.040;13.918;2023-02-11T15:14:29;4.50;99.90
19580;DHT22;9936;51.040;13.918;2023-02-11T15:18:19;4.50;99.90
19580;DHT22;9936;51.040;13.918;2023-02-11T15:22:19;4.50;99.90
19580;DHT22;9936;51.040;13.918;2023-02-11T15:26:13;4.50;99.90
19580;DHT22;9936;51.040;13.918;2023-02-11T15:34:08;4.60;99.90
19580;DHT22;9936;51.040;13.918;2023-02-11T15:37:55;4.60;99.90
19580;DHT22;9936;51.040;13.918;2023-02-11T15:41:42;4.70;99.90
19580;DHT22;9936;51.040;13.918;2023-02-11T15:45:43;4.60;99.90
19580;DHT22;9936;51.040;13.918;2023-02-11T15:49:30;4.60;99.90
19580;DHT22;9936;51.040;13.918;2023-02-11T15:57:11;4.70;99.90
19580;DHT22;9936;51.040;13.918;2023-02-11T16:00:56;4.70;99.90
19580;DHT22;9936;51.040;13.918;2023-02-11T16:05:02;4.60;99.90
19580;DHT22;9936;51.040;13.918;2023-02-11T16:08:59;4.60;99.90
19580;DHT22;9936;51.040;13.918;2023-02-11T16:16:37;4.50;99.90
19580;DHT22;9936;51.040;13.918;2023-02-11T16:20:22;4.60;99.90
19580;DHT22;9936;51.040;13.918;2023-02-11T16:24:18;4.60;99.90
19580;DHT22;9936;51.040;13.918;2023-02-11T16:28:11;4.50;99.90
19580;DHT22;9936;51.040;13.918;2023-02-11T16:32:26;4.40;99.90
19580;DHT22;9936;51.040;13.918;2023-02-11T16:36:13;4.40;99.90
19580;DHT22;9936;51.040;13.918;2023-02-11T16:45:15;4.40;99.90
19580;DHT22;9936;51.040;13.918;2023-02-11T16:49:11;4.30;99.90
19580;DHT22;9936;51.040;13.918;2023-02-11T16:52:59;4.30;99.90
19580;DHT22;9936;51.040;13.918;2023-02-11T16:56:46;4.30;99.90
19580;DHT22;9936;51.040;13.918;2023-02-11T17:00:32;4.30;99.90
19580;DHT22;9936;51.040;13.918;2023-02-11T17:04:23;4.30;99.90
19580;DHT22;9936;51.040;13.918;2023-02-11T17:08:10;4.20;99.90
19580;DHT22;9936;51.040;13.918;2023-02-11T17:11:58;4.20;99.90
19580;DHT22;9936;51.040;13.918;2023-02-11T17:15:44;4.20;99.90
19580;DHT22;9936;51.040;13.918;2023-02-11T17:19:30;4.20;99.90
19580;DHT22;9936;51.040;13.918;2023-02-11T17:23:15;4.30;99.90
19580;DHT22;9936;51.040;13.918;2023-02-11T17:27:01;4.20;99.90
19580;DHT22;9936;51.040;13.918;2023-02-11T17:30:46;4.20;99.90
19580;DHT22;9936;51.040;13.918;2023-02-11T17:34:32;4.20;99.90
19580;DHT22;9936;51.040;13.918;2023-02-11T17:38:18;4.30;99.90
19580;DHT22;9936;51.040;13.918;2023-02-11T17:42:04;4.30;99.90
19580;DHT22;9936;51.040;13.918;2023-02-11T17:45:50;4.30;99.90
19580;DHT22;9936;51.040;13.918;2023-02-11T17:49:36;4.40;99.90
19580;DHT22;9936;51.040;13.918;2023-02-11T17:53:21;4.30;99.90
19580;DHT22;9936;51.040;13.918;2023-02-11T17:57:08;4.30;99.90
19580;DHT22;9936;51.040;13.918;2023-02-11T18:00:57;4.40;99.90
19580;DHT22;9936;51.040;13.918;2023-02-11T18:04:43;4.30;99.90
19580;DHT22;9936;51.040;13.918;2023-02-11T18:08:28;4.30;99.90
19580;DHT22;9936;51.040;13.918;2023-02-11T18:12:14;4.40;99.90
19580;DHT22;9936;51.040;13.918;2023-02-11T18:16:03;4.40;99.90
19580;DHT22;9936;51.040;13.918;2023-02-11T18:19:49;4.40;99.90
19580;DHT22;9936;51.040;13.918;2023-02-11T18:23:35;4.40;99.90
19580;DHT22;9936;51.040;13.918;2023-02-11T18:27:21;4.40;99.90
19580;DHT22;9936;51.040;13.918;2023-02-11T18:31:08;4.40;99.90
19580;DHT22;9936;51.040;13.918;2023-02-11T18:34:54;4.40;99.90
19580;DHT22;9936;51.040;13.918;2023-02-11T18:38:41;4.40;99.90
19580;DHT22;9936;51.040;13.918;2023-02-11T18:42:28;4.40;99.90
19580;DHT22;9936;51.040;13.918;2023-02-11T18:46:15;4.40;99.90
19580;DHT22;9936;51.040;13.918;2023-02-11T18:50:00;4.40;99.90
19580;DHT22;9936;51.040;13.918;2023-02-11T18:53:46;4.40;99.90
19580;DHT22;9936;51.040;13.918;2023-02-11T18:57:32;4.40;99.90
19580;DHT22;9936;51.040;13.918;2023-02-11T19:01:21;4.50;99.90
19580;DHT22;9936;51.040;13.918;2023-02-11T19:05:08;4.40;99.90
19580;DHT22;9936;51.040;13.918;2023-02-11T19:08:56;4.50;99.90
19580;DHT22;9936;51.040;13.918;2023-02-11T19:12:42;4.50;99.90
19580;DHT22;9936;51.040;13.918;2023-02-11T19:16:28;4.50;99.90
19580;DHT22;9936;51.040;13.918;2023-02-11T19:20:13;4.50;99.90
19580;DHT22;9936;51.040;13.918;2023-02-11T19:24:00;4.40;99.90
19580;DHT22;9936;51.040;13.918;2023-02-11T19:27:46;4.50;99.90
19580;DHT22;9936;51.040;13.918;2023-02-11T19:31:34;4.50;99.90
19580;DHT22;9936;51.040;13.918;2023-02-11T19:35:20;4.40;99.90
19580;DHT22;9936;51.040;13.918;2023-02-11T19:39:06;4.60;99.90
19580;DHT22;9936;51.040;13.918;2023-02-11T19:42:51;4.50;99.90
19580;DHT22;9936;51.040;13.918;2023-02-11T19:46:38;4.50;99.90
19580;DHT22;9936;51.040;13.918;2023-02-11T19:50:25;4.50;99.90
19580;DHT22;9936;51.040;13.918;2023-02-11T19:54:11;4.50;99.90
19580;DHT22;9936;51.040;13.918;2023-02-11T19:57:57;4.60;99.90
19580;DHT22;9936;51.040;13.918;2023-02-11T20:01:43;4.50;99.90
19580;DHT22;9936;51.040;13.918;2023-02-11T20:05:31;4.50;99.90
19580;DHT22;9936;51.040;13.918;2023-02-11T20:09:17;4.60;99.90
19580;DHT22;9936;51.040;13.918;2023-02-11T20:13:03;4.50;99.90
19580;DHT22;9936;51.040;13.918;2023-02-11T20:16:49;4.60;99.90
19580;DHT22;9936;51.040;13.918;2023-02-11T20:20:36;4.50;99.90
19580;DHT22;9936;51.040;13.918;2023-02-11T20:24:23;4.50;99.90
19580;DHT22;9936;51.040;13.918;2023-02-11T20:28:09;4.50;99.90
19580;DHT22;9936;51.040;13.918;2023-02-11T20:31:55;4.50;99.90
19580;DHT22;9936;51.040;13.918;2023-02-11T20:35:41;4.50;99.90
19580;DHT22;9936;51.040;13.918;2023-02-11T20:39:26;4.50;99.90
19580;DHT22;9936;51.040;13.918;2023-02-11T20:43:12;4.50;99.90
19580;DHT22;9936;51.040;13.918;2023-02-11T20:46:58;4.50;99.90
19580;DHT22;9936;51.040;13.918;2023-02-11T20:50:44;4.50;99.90
19580;DHT22;9936;51.040;13.918;2023-02-11T20:54:29;4.50;99.90
19580;DHT22;9936;51.040;13.918;2023-02-11T20:58:15;4.60;99.90
19580;DHT22;9936;51.040;13.918;2023-02-11T21:02:01;4.50;99.90
19580;DHT22;9936;51.040;13.918;2023-02-11T21:05:47;4.50;99.90
19580;DHT22;9936;51.040;13.918;2023-02-11T21:09:32;4.60;99.90
19580;DHT22;9936;51.040;13.918;2023-02-11T21:13:19;4.50;99.90
19580;DHT22;9936;51.040;13.918;2023-02-11T21:17:04;4.50;99.90
19580;DHT22;9936;51.040;13.918;2023-02-11T21:20:52;4.60;99.90
19580;DHT22;9936;51.040;13.918;2023-02-11T21:24:37;4.70;99.90
19580;DHT22;9936;51.040;13.918;2023-02-11T21:28:23;4.60;99.90
19580;DHT22;9936;51.040;13.918;2023-02-11T21:32:12;4.60;99.90
19580;DHT22;9936;51.040;13.918;2023-02-11T21:36:03;4.60;99.90
19580;DHT22;9936;51.040;13.918;2023-02-11T21:39:50;4.60;99.90
19580;DHT22;9936;51.040;13.918;2023-02-11T21:43:36;4.60;99.90
19580;DHT22;9936;51.040;13.918;2023-02-11T21:47:22;4.60;99.90
19580;DHT22;9936;51.040;13.918;2023-02-11T21:51:18;4.60;99.90
19580;DHT22;9936;51.040;13.918;2023-02-11T21:55:05;4.60;99.90
19580;DHT22;9936;51.040;13.918;2023-02-11T21:58:53;4.60;99.90
19580;DHT22;9936;51.040;13.918;2023-02-11T22:02:39;4.60;99.90
19580;DHT22;9936;51.040;13.918;2023-02-11T22:06:28;4.60;99.90
19580;DHT22;9936;51.040;13.918;2023-02-11T22:10:16;4.70;99.90
19580;DHT22;9936;51.040;13.918;2023-02-11T22:14:02;4.60;99.90
19580;DHT22;9936;51.040;13.918;2023-02-11T22:17:48;4.60;99.90
19580;DHT22;9936;51.040;13.918;2023-02-11T22:21:34;4.60;99.90
19580;DHT22;9936;51.040;13.918;2023-02-11T22:25:19;4.70;99.90
19580;DHT22;9936;51.040;13.918;2023-02-11T22:29:05;4.70;99.90
19580;DHT22;9936;51.040;13.918;2023-02-11T22:32:52;4.70;99.90
19580;DHT22;9936;51.040;13.918;2023-02-11T22:36:40;4.70;99.90
19580;DHT22;9936;51.040;13.918;2023-02-11T22:40:26;4.70;99.90
19580;DHT22;9936;51.040;13.918;2023-02-11T22:44:12;4.70;99.90
19580;DHT22;9936;51.040;13.918;2023-02-11T22:47:58;4.60;99.90
19580;DHT22;9936;51.040;13.918;2023-02-11T22:51:44;4.60;99.90
19580;DHT22;9936;51.040;13.918;2023-02-11T22:55:29;4.80;99.90
19580;DHT22;9936;51.040;13.918;2023-02-11T22:59:15;4.70;99.90
19580;DHT22;9936;51.040;13.918;2023-02-11T23:03:04;4.70;99.90
19580;DHT22;9936;51.040;13.918;2023-02-11T23:06:49;4.80;99.90
19580;DHT22;9936;51.040;13.918;2023-02-11T23:10:36;5.00;99.90
19580;DHT22;9936;51.040;13.918;2023-02-11T23:14:22;5.20;99.90
19580;DHT22;9936;51.040;13.918;2023-02-11T23:18:09;5.30;99.90
19580;DHT22;9936;51.040;13.918;2023-02-11T23:21:55;5.40;99.90
19580;DHT22;9936;51.040;13.918;2023-02-11T23:25:42;5.40;99.90
19580;DHT22;9936;51.040;13.918;2023-02-11T23:29:28;5.50;99.90
19580;DHT22;9936;51.040;13.918;2023-02-11T23:33:14;5.60;99.90
19580;DHT22;9936;51.040;13.918;2023-02-11T23:36:59;5.60;99.90
19580;DHT22;9936;51.040;13.918;2023-02-11T23:40:45;5.60;99.90
19580;DHT22;9936;51.040;13.918;2023-02-11T23:44:31;5.50;99.90
19580;DHT22;9936;51.040;13.918;2023-02-11T23:48:17;5.60;99.90
19580;DHT22;9936;51.040;13.918;2023-02-11T23:52:02;5.70;99.90
19580;DHT22;9936;51.040;13.918;2023-02-11T23:55:48;5.70;99.90
19580;DHT22;9936;51.040;13.918;2023-02-11T23:59:34;5.70;99.90
